sensor_id;sensor_type;location;lat;lon;timestamp;pressure;altitude;pressure_sealevel;temperature;humidity
35888;BME280;21990;42.540;23.496;2023-05-09T00:02:21;93774.31;;;13.47;93.32
35888;BME280;21990;42.540;23.496;2023-05-09T00:04:47;93767.59;;;13.37;92.82
35888;BME280;21990;42.540;23.496;2023-05-09T00:07:13;93768.91;;;13.36;93.50
35888;BME280;21990;42.540;23.496;2023-05-09T00:09:38;93765.00;;;13.25;93.45
35888;BME280;21990;42.540;23.496;2023-05-09T00:12:03;93767.38;;;13.35;93.13
35888;BME280;21990;42.540;23.496;2023-05-09T00:14:29;93772.94;;;13.40;92.63
35888;BME280;21990;42.540;23.496;2023-05-09T00:16:54;93759.44;;;13.33;92.73
35888;BME280;21990;42.540;23.496;2023-05-09T00:19:23;93757.28;;;13.26;92.85
35888;BME280;21990;42.540;23.496;2023-05-09T00:21:48;93765.53;;;13.24;92.48
35888;BME280;21990;42.540;23.496;2023-05-09T00:24:14;93758.91;;;13.21;93.14
35888;BME280;21990;42.540;23.496;2023-05-09T00:26:39;93759.25;;;13.18;92.50
35888;BME280;21990;42.540;23.496;2023-05-09T00:29:05;93759.78;;;13.16;93.05
35888;BME280;21990;42.540;23.496;2023-05-09T00:31:30;93756.19;;;13.03;93.18
35888;BME280;21990;42.540;23.496;2023-05-09T00:33:55;93758.59;;;13.12;93.35
35888;BME280;21990;42.540;23.496;2023-05-09T00:36:21;93765.00;;;13.12;93.30
35888;BME280;21990;42.540;23.496;2023-05-09T00:38:46;93764.78;;;12.97;93.42
35888;BME280;21990;42.540;23.496;2023-05-09T00:41:11;93758.44;;;13.04;93.92
35888;BME280;21990;42.540;23.496;2023-05-09T00:43:37;93762.47;;;13.09;93.52
35888;BME280;21990;42.540;23.496;2023-05-09T00:46:02;93759.59;;;13.14;93.57
35888;BME280;21990;42.540;23.496;2023-05-09T00:48:28;93763.91;;;13.15;93.36
35888;BME280;21990;42.540;23.496;2023-05-09T00:50:53;93772.84;;;13.19;93.75
35888;BME280;21990;42.540;23.496;2023-05-09T00:53:19;93770.66;;;13.12;93.92
35888;BME280;21990;42.540;23.496;2023-05-09T00:55:44;93767.50;;;13.16;93.75
35888;BME280;21990;42.540;23.496;2023-05-09T00:58:10;93761.31;;;13.17;93.68
35888;BME280;21990;42.540;23.496;2023-05-09T01:00:35;93763.91;;;13.15;94.13
35888;BME280;21990;42.540;23.496;2023-05-09T01:03:01;93762.09;;;13.18;94.50
35888;BME280;21990;42.540;23.496;2023-05-09T01:05:37;93764.47;;;13.14;94.02
35888;BME280;21990;42.540;23.496;2023-05-09T01:08:50;93763.19;;;13.15;93.26
35888;BME280;21990;42.540;23.496;2023-05-09T01:11:03;93759.22;;;13.05;93.33
35888;BME280;21990;42.540;23.496;2023-05-09T01:16:13;93768.06;;;13.14;94.26
35888;BME280;21990;42.540;23.496;2023-05-09T01:18:49;93753.59;;;13.18;94.43
35888;BME280;21990;42.540;23.496;2023-05-09T01:21:16;93756.41;;;13.18;94.50
35888;BME280;21990;42.540;23.496;2023-05-09T01:31:41;93762.63;;;13.16;93.88
35888;BME280;21990;42.540;23.496;2023-05-09T01:34:08;93765.09;;;13.20;94.40
35888;BME280;21990;42.540;23.496;2023-05-09T01:36:35;93765.09;;;13.20;94.38
35888;BME280;21990;42.540;23.496;2023-05-09T01:39:01;93768.16;;;13.22;94.66
35888;BME280;21990;42.540;23.496;2023-05-09T01:41:29;93767.63;;;13.10;94.41
35888;BME280;21990;42.540;23.496;2023-05-09T01:43:55;93768.41;;;13.11;95.01
35888;BME280;21990;42.540;23.496;2023-05-09T01:46:23;93768.13;;;13.09;95.01
35888;BME280;21990;42.540;23.496;2023-05-09T01:48:49;93773.91;;;13.03;95.48
35888;BME280;21990;42.540;23.496;2023-05-09T01:51:16;93776.31;;;12.99;94.90
35888;BME280;21990;42.540;23.496;2023-05-09T01:53:43;93772.06;;;12.93;95.34
35888;BME280;21990;42.540;23.496;2023-05-09T01:56:09;93768.03;;;12.88;96.07
35888;BME280;21990;42.540;23.496;2023-05-09T01:58:36;93771.84;;;12.91;96.05
35888;BME280;21990;42.540;23.496;2023-05-09T02:01:02;93775.00;;;13.00;95.68
35888;BME280;21990;42.540;23.496;2023-05-09T02:03:28;93772.41;;;13.02;95.58
35888;BME280;21990;42.540;23.496;2023-05-09T02:05:54;93768.66;;;13.07;95.44
35888;BME280;21990;42.540;23.496;2023-05-09T02:08:19;93771.72;;;13.09;95.48
35888;BME280;21990;42.540;23.496;2023-05-09T02:10:46;93768.66;;;13.07;95.59
35888;BME280;21990;42.540;23.496;2023-05-09T02:13:11;93771.28;;;13.05;95.69
35888;BME280;21990;42.540;23.496;2023-05-09T02:15:37;93771.44;;;13.13;95.67
35888;BME280;21990;42.540;23.496;2023-05-09T02:18:03;93776.56;;;13.14;95.58
35888;BME280;21990;42.540;23.496;2023-05-09T02:20:28;93774.25;;;13.13;95.72
35888;BME280;21990;42.540;23.496;2023-05-09T02:22:54;93770.91;;;13.14;95.54
35888;BME280;21990;42.540;23.496;2023-05-09T02:25:19;93771.88;;;13.17;94.98
35888;BME280;21990;42.540;23.496;2023-05-09T02:27:45;93765.09;;;13.20;94.96
35888;BME280;21990;42.540;23.496;2023-05-09T02:30:11;93763.03;;;13.20;94.99
35888;BME280;21990;42.540;23.496;2023-05-09T02:32:38;93765.00;;;13.12;95.22
35888;BME280;21990;42.540;23.496;2023-05-09T02:35:05;93766.53;;;13.13;95.16
35888;BME280;21990;42.540;23.496;2023-05-09T02:37:31;93769.91;;;13.12;94.16
35888;BME280;21990;42.540;23.496;2023-05-09T02:39:57;93771.81;;;13.04;94.19
35888;BME280;21990;42.540;23.496;2023-05-09T02:42:24;93774.78;;;13.11;94.14
35888;BME280;21990;42.540;23.496;2023-05-09T02:44:52;93771.97;;;13.11;95.28
35888;BME280;21990;42.540;23.496;2023-05-09T02:47:18;93775.44;;;13.04;95.13
35888;BME280;21990;42.540;23.496;2023-05-09T02:49:44;93770.44;;;12.97;95.48
35888;BME280;21990;42.540;23.496;2023-05-09T02:52:09;93765.22;;;13.01;95.51
35888;BME280;21990;42.540;23.496;2023-05-09T02:54:35;93776.97;;;13.05;95.22
35888;BME280;21990;42.540;23.496;2023-05-09T02:57:01;93772.59;;;13.04;95.51
35888;BME280;21990;42.540;23.496;2023-05-09T02:59:26;93776.75;;;12.90;95.20
35888;BME280;21990;42.540;23.496;2023-05-09T03:01:51;93776.50;;;12.88;96.22
35888;BME280;21990;42.540;23.496;2023-05-09T03:04:17;93772.91;;;12.74;96.17
35888;BME280;21990;42.540;23.496;2023-05-09T03:06:43;93778.34;;;12.59;96.75
35888;BME280;21990;42.540;23.496;2023-05-09T03:09:09;93773.56;;;12.67;97.27
35888;BME280;21990;42.540;23.496;2023-05-09T03:11:34;93776.19;;;12.78;96.92
35888;BME280;21990;42.540;23.496;2023-05-09T03:14:03;93772.38;;;12.89;96.73
35888;BME280;21990;42.540;23.496;2023-05-09T03:16:29;93781.19;;;12.85;95.94
35888;BME280;21990;42.540;23.496;2023-05-09T03:18:55;93782.47;;;12.58;96.54
35888;BME280;21990;42.540;23.496;2023-05-09T03:21:20;93792.81;;;12.69;97.45
35888;BME280;21990;42.540;23.496;2023-05-09T03:23:46;93806.53;;;12.78;97.33
35888;BME280;21990;42.540;23.496;2023-05-09T03:26:11;93805.00;;;12.77;97.20
35888;BME280;21990;42.540;23.496;2023-05-09T03:28:37;93806.16;;;12.68;96.84
35888;BME280;21990;42.540;23.496;2023-05-09T03:31:02;93804.94;;;12.51;97.50
35888;BME280;21990;42.540;23.496;2023-05-09T03:33:28;93813.81;;;12.28;98.70
35888;BME280;21990;42.540;23.496;2023-05-09T03:35:53;93805.97;;;12.21;99.57
35888;BME280;21990;42.540;23.496;2023-05-09T03:38:19;93814.88;;;12.25;99.69
35888;BME280;21990;42.540;23.496;2023-05-09T03:40:44;93815.72;;;12.20;100.00
35888;BME280;21990;42.540;23.496;2023-05-09T03:43:10;93816.25;;;12.19;100.00
35888;BME280;21990;42.540;23.496;2023-05-09T03:45:35;93819.84;;;12.19;99.94
35888;BME280;21990;42.540;23.496;2023-05-09T03:48:02;93820.00;;;12.27;99.47
35888;BME280;21990;42.540;23.496;2023-05-09T03:50:29;93823.38;;;12.25;99.17
35888;BME280;21990;42.540;23.496;2023-05-09T03:52:54;93820.75;;;12.27;98.89
35888;BME280;21990;42.540;23.496;2023-05-09T03:55:21;93825.13;;;12.28;98.00
35888;BME280;21990;42.540;23.496;2023-05-09T03:57:47;93823.38;;;12.07;97.72
35888;BME280;21990;42.540;23.496;2023-05-09T04:00:13;93827.53;;;12.06;98.19
35888;BME280;21990;42.540;23.496;2023-05-09T04:02:38;93823.34;;;11.94;99.07
35888;BME280;21990;42.540;23.496;2023-05-09T04:05:04;93819.50;;;11.91;99.13
35888;BME280;21990;42.540;23.496;2023-05-09T04:07:29;93832.03;;;11.96;98.76
35888;BME280;21990;42.540;23.496;2023-05-09T04:09:54;93832.13;;;11.90;99.23
35888;BME280;21990;42.540;23.496;2023-05-09T04:12:20;93827.81;;;11.83;99.17
35888;BME280;21990;42.540;23.496;2023-05-09T04:14:45;93830.34;;;11.87;100.00
35888;BME280;21990;42.540;23.496;2023-05-09T04:17:11;93834.19;;;11.89;99.95
35888;BME280;21990;42.540;23.496;2023-05-09T04:19:36;93838.75;;;11.93;99.94
35888;BME280;21990;42.540;23.496;2023-05-09T04:22:02;93835.09;;;11.98;100.00
35888;BME280;21990;42.540;23.496;2023-05-09T04:24:28;93833.16;;;12.06;100.00
35888;BME280;21990;42.540;23.496;2023-05-09T04:26:53;93837.59;;;12.01;99.09
35888;BME280;21990;42.540;23.496;2023-05-09T04:29:18;93840.28;;;11.94;99.58
35888;BME280;21990;42.540;23.496;2023-05-09T04:31:44;93844.09;;;11.96;99.66
35888;BME280;21990;42.540;23.496;2023-05-09T04:34:09;93844.53;;;12.00;99.24
35888;BME280;21990;42.540;23.496;2023-05-09T04:36:35;93837.78;;;11.90;98.84
35888;BME280;21990;42.540;23.496;2023-05-09T04:39:01;93844.31;;;11.98;99.96
35888;BME280;21990;42.540;23.496;2023-05-09T04:41:26;93837.50;;;12.07;99.20
35888;BME280;21990;42.540;23.496;2023-05-09T04:43:51;93841.03;;;11.94;98.54
35888;BME280;21990;42.540;23.496;2023-05-09T04:46:17;93836.00;;;11.87;98.99
35888;BME280;21990;42.540;23.496;2023-05-09T04:48:42;93841.19;;;11.83;99.00
35888;BME280;21990;42.540;23.496;2023-05-09T04:51:07;93841.94;;;11.83;98.46
35888;BME280;21990;42.540;23.496;2023-05-09T04:53:33;93840.28;;;11.75;97.98
35888;BME280;21990;42.540;23.496;2023-05-09T04:55:58;93835.75;;;11.66;98.01
35888;BME280;21990;42.540;23.496;2023-05-09T04:58:24;93847.09;;;11.61;98.65
35888;BME280;21990;42.540;23.496;2023-05-09T05:00:50;93849.78;;;11.53;98.92
35888;BME280;21990;42.540;23.496;2023-05-09T05:03:16;93855.13;;;11.57;99.39
35888;BME280;21990;42.540;23.496;2023-05-09T05:05:42;93848.84;;;11.64;99.11
35888;BME280;21990;42.540;23.496;2023-05-09T05:08:07;93836.38;;;11.59;99.14
35888;BME280;21990;42.540;23.496;2023-05-09T05:10:32;93844.22;;;11.66;99.46
35888;BME280;21990;42.540;23.496;2023-05-09T05:12:58;93824.47;;;11.66;98.99
35888;BME280;21990;42.540;23.496;2023-05-09T05:15:23;93839.81;;;11.71;99.24
35888;BME280;21990;42.540;23.496;2023-05-09T05:17:48;93835.94;;;11.74;99.10
35888;BME280;21990;42.540;23.496;2023-05-09T05:20:14;93839.59;;;11.87;98.23
35888;BME280;21990;42.540;23.496;2023-05-09T05:22:39;93847.44;;;11.95;97.21
35888;BME280;21990;42.540;23.496;2023-05-09T05:25:05;93842.25;;;11.99;96.91
35888;BME280;21990;42.540;23.496;2023-05-09T05:27:30;93843.59;;;12.11;95.94
35888;BME280;21990;42.540;23.496;2023-05-09T05:29:56;93836.97;;;12.08;95.57
35888;BME280;21990;42.540;23.496;2023-05-09T05:32:21;93842.09;;;12.10;95.65
35888;BME280;21990;42.540;23.496;2023-05-09T05:34:46;93840.00;;;12.10;95.63
35888;BME280;21990;42.540;23.496;2023-05-09T05:37:12;93840.72;;;11.98;95.11
35888;BME280;21990;42.540;23.496;2023-05-09T05:39:37;93850.03;;;12.11;95.43
35888;BME280;21990;42.540;23.496;2023-05-09T05:42:02;93851.63;;;12.07;95.77
35888;BME280;21990;42.540;23.496;2023-05-09T05:44:28;93852.22;;;12.18;94.50
35888;BME280;21990;42.540;23.496;2023-05-09T05:46:53;93849.31;;;12.24;94.12
35888;BME280;21990;42.540;23.496;2023-05-09T05:49:19;93857.69;;;12.29;94.90
35888;BME280;21990;42.540;23.496;2023-05-09T05:51:44;93848.78;;;12.25;94.99
35888;BME280;21990;42.540;23.496;2023-05-09T05:54:09;93853.13;;;12.26;93.16
35888;BME280;21990;42.540;23.496;2023-05-09T05:56:35;93848.78;;;12.25;92.32
35888;BME280;21990;42.540;23.496;2023-05-09T05:59:00;93854.59;;;12.33;93.38
35888;BME280;21990;42.540;23.496;2023-05-09T06:01:25;93855.88;;;12.32;91.10
35888;BME280;21990;42.540;23.496;2023-05-09T06:03:51;93853.38;;;12.28;91.94
35888;BME280;21990;42.540;23.496;2023-05-09T06:06:19;93855.81;;;12.19;91.43
35888;BME280;21990;42.540;23.496;2023-05-09T06:08:45;93854.72;;;12.22;91.56
35888;BME280;21990;42.540;23.496;2023-05-09T06:11:11;93849.09;;;12.22;92.09
35888;BME280;21990;42.540;23.496;2023-05-09T06:13:36;93845.72;;;12.23;90.57
35888;BME280;21990;42.540;23.496;2023-05-09T06:16:01;93858.13;;;12.20;90.40
35888;BME280;21990;42.540;23.496;2023-05-09T06:18:27;93860.16;;;12.20;91.28
35888;BME280;21990;42.540;23.496;2023-05-09T06:20:53;93856.56;;;12.19;92.24
35888;BME280;21990;42.540;23.496;2023-05-09T06:23:18;93854.53;;;12.20;91.37
35888;BME280;21990;42.540;23.496;2023-05-09T06:25:46;93858.13;;;12.20;91.25
35888;BME280;21990;42.540;23.496;2023-05-09T06:28:11;93857.66;;;12.16;90.85
35888;BME280;21990;42.540;23.496;2023-05-09T06:30:37;93859.19;;;12.17;90.77
35888;BME280;21990;42.540;23.496;2023-05-09T06:33:02;93863.97;;;12.22;90.45
35888;BME280;21990;42.540;23.496;2023-05-09T06:35:28;93861.16;;;12.22;90.97
35888;BME280;21990;42.540;23.496;2023-05-09T06:37:53;93854.19;;;12.23;91.20
35888;BME280;21990;42.540;23.496;2023-05-09T06:40:18;93858.88;;;12.21;91.03
35888;BME280;21990;42.540;23.496;2023-05-09T06:42:44;93853.56;;;12.30;90.01
35888;BME280;21990;42.540;23.496;2023-05-09T06:45:09;93859.66;;;12.21;90.14
35888;BME280;21990;42.540;23.496;2023-05-09T06:47:35;93861.16;;;12.22;90.60
35888;BME280;21990;42.540;23.496;2023-05-09T06:50:00;93862.38;;;12.27;89.70
35888;BME280;21990;42.540;23.496;2023-05-09T06:52:26;93861.25;;;12.17;90.27
35888;BME280;21990;42.540;23.496;2023-05-09T06:54:51;93861.56;;;12.13;90.33
35888;BME280;21990;42.540;23.496;2023-05-09T06:57:17;93859.50;;;12.14;89.91
35888;BME280;21990;42.540;23.496;2023-05-09T06:59:42;93866.13;;;12.16;89.70
35888;BME280;21990;42.540;23.496;2023-05-09T07:02:09;93850.84;;;12.25;90.81
35888;BME280;21990;42.540;23.496;2023-05-09T07:04:34;93850.28;;;12.26;91.12
35888;BME280;21990;42.540;23.496;2023-05-09T07:06:59;93850.41;;;12.21;90.10
35888;BME280;21990;42.540;23.496;2023-05-09T07:09:25;93848.56;;;12.23;91.60
35888;BME280;21990;42.540;23.496;2023-05-09T07:11:53;93847.47;;;12.26;90.57
35888;BME280;21990;42.540;23.496;2023-05-09T07:14:18;93851.19;;;12.34;90.38
35888;BME280;21990;42.540;23.496;2023-05-09T07:16:44;93855.25;;;12.39;89.47
35888;BME280;21990;42.540;23.496;2023-05-09T07:19:10;93855.31;;;12.52;90.47
35888;BME280;21990;42.540;23.496;2023-05-09T07:21:36;93859.88;;;12.55;89.01
35888;BME280;21990;42.540;23.496;2023-05-09T07:24:01;93859.41;;;12.51;88.73
35888;BME280;21990;42.540;23.496;2023-05-09T07:26:26;93851.25;;;12.48;89.24
35888;BME280;21990;42.540;23.496;2023-05-09T07:28:52;93857.13;;;12.50;89.69
35888;BME280;21990;42.540;23.496;2023-05-09T07:31:17;93867.44;;;12.47;90.35
35888;BME280;21990;42.540;23.496;2023-05-09T07:33:43;93858.66;;;12.51;90.34
35888;BME280;21990;42.540;23.496;2023-05-09T07:36:08;93857.69;;;12.48;90.47
35888;BME280;21990;42.540;23.496;2023-05-09T07:38:37;93856.34;;;12.49;89.93
35888;BME280;21990;42.540;23.496;2023-05-09T07:41:03;93858.19;;;12.47;89.94
35888;BME280;21990;42.540;23.496;2023-05-09T07:43:28;93860.06;;;12.44;90.40
35888;BME280;21990;42.540;23.496;2023-05-09T07:45:54;93861.47;;;12.51;90.17
35888;BME280;21990;42.540;23.496;2023-05-09T07:48:19;93864.13;;;12.62;89.77
35888;BME280;21990;42.540;23.496;2023-05-09T07:50:45;93860.44;;;12.67;88.46
35888;BME280;21990;42.540;23.496;2023-05-09T07:53:10;93861.28;;;12.62;88.25
35888;BME280;21990;42.540;23.496;2023-05-09T07:55:35;93862.06;;;12.62;88.60
35888;BME280;21990;42.540;23.496;2023-05-09T07:58:01;93861.66;;;12.71;88.29
35888;BME280;21990;42.540;23.496;2023-05-09T08:00:26;93859.59;;;12.72;87.57
35888;BME280;21990;42.540;23.496;2023-05-09T08:02:52;93858.16;;;12.65;87.97
35888;BME280;21990;42.540;23.496;2023-05-09T08:05:17;93851.00;;;12.77;88.03
35888;BME280;21990;42.540;23.496;2023-05-09T08:07:43;93854.38;;;12.76;88.67
35888;BME280;21990;42.540;23.496;2023-05-09T08:10:08;93858.97;;;12.79;86.13
35888;BME280;21990;42.540;23.496;2023-05-09T08:12:34;93861.34;;;12.88;87.81
35888;BME280;21990;42.540;23.496;2023-05-09T08:14:59;93856.34;;;12.81;87.51
35888;BME280;21990;42.540;23.496;2023-05-09T08:17:25;93855.03;;;12.82;89.07
35888;BME280;21990;42.540;23.496;2023-05-09T08:19:50;93857.75;;;12.74;86.08
35888;BME280;21990;42.540;23.496;2023-05-09T08:22:16;93851.97;;;12.67;85.80
35888;BME280;21990;42.540;23.496;2023-05-09T08:24:42;93863.53;;;12.50;87.69
35888;BME280;21990;42.540;23.496;2023-05-09T08:27:08;93861.72;;;12.53;87.71
35888;BME280;21990;42.540;23.496;2023-05-09T08:29:33;93863.66;;;12.58;87.21
35888;BME280;21990;42.540;23.496;2023-05-09T08:31:58;93872.84;;;12.64;87.35
35888;BME280;21990;42.540;23.496;2023-05-09T08:34:24;93862.38;;;12.59;86.67
35888;BME280;21990;42.540;23.496;2023-05-09T08:36:50;93861.41;;;12.56;86.98
35888;BME280;21990;42.540;23.496;2023-05-09T08:39:15;93860.06;;;12.57;86.36
35888;BME280;21990;42.540;23.496;2023-05-09T08:41:41;93853.13;;;12.58;86.59
35888;BME280;21990;42.540;23.496;2023-05-09T08:44:06;93862.91;;;12.57;86.92
35888;BME280;21990;42.540;23.496;2023-05-09T08:46:36;93853.25;;;12.53;87.57
35888;BME280;21990;42.540;23.496;2023-05-09T08:49:05;93851.16;;;12.53;86.32
35888;BME280;21990;42.540;23.496;2023-05-09T08:51:33;93853.56;;;12.62;87.14
35888;BME280;21990;42.540;23.496;2023-05-09T08:53:59;93858.91;;;12.66;85.50
35888;BME280;21990;42.540;23.496;2023-05-09T08:56:24;93859.41;;;12.51;86.27
35888;BME280;21990;42.540;23.496;2023-05-09T08:58:50;93859.19;;;12.49;86.32
35888;BME280;21990;42.540;23.496;2023-05-09T09:01:16;93853.53;;;12.49;87.38
35888;BME280;21990;42.540;23.496;2023-05-09T09:03:43;93857.56;;;12.54;87.27
35888;BME280;21990;42.540;23.496;2023-05-09T09:06:11;93855.16;;;12.45;86.88
35888;BME280;21990;42.540;23.496;2023-05-09T09:08:37;93853.72;;;12.38;87.82
35888;BME280;21990;42.540;23.496;2023-05-09T09:11:03;93852.88;;;12.43;88.61
35888;BME280;21990;42.540;23.496;2023-05-09T09:13:29;93845.38;;;12.46;88.08
35888;BME280;21990;42.540;23.496;2023-05-09T09:15:55;93849.16;;;12.35;87.97
35888;BME280;21990;42.540;23.496;2023-05-09T09:18:23;93856.84;;;12.34;88.29
35888;BME280;21990;42.540;23.496;2023-05-09T09:20:55;93848.63;;;12.36;88.74
35888;BME280;21990;42.540;23.496;2023-05-09T09:23:23;93854.34;;;12.31;87.81
35888;BME280;21990;42.540;23.496;2023-05-09T09:25:55;93854.72;;;12.22;88.67
35888;BME280;21990;42.540;23.496;2023-05-09T09:28:21;93849.50;;;12.13;88.59
35888;BME280;21990;42.540;23.496;2023-05-09T09:30:46;93851.25;;;12.16;89.41
35888;BME280;21990;42.540;23.496;2023-05-09T09:33:19;93852.34;;;12.26;88.57
35888;BME280;21990;42.540;23.496;2023-05-09T09:35:46;93859.22;;;12.30;88.26
35888;BME280;21990;42.540;23.496;2023-05-09T09:38:11;93850.69;;;12.36;88.53
35888;BME280;21990;42.540;23.496;2023-05-09T09:40:37;93850.81;;;12.44;88.05
35888;BME280;21990;42.540;23.496;2023-05-09T09:43:05;93844.75;;;12.53;88.73
35888;BME280;21990;42.540;23.496;2023-05-09T09:45:31;93849.84;;;12.54;87.21
35888;BME280;21990;42.540;23.496;2023-05-09T09:47:56;93856.94;;;12.61;86.46
35888;BME280;21990;42.540;23.496;2023-05-09T09:50:21;93853.50;;;12.68;86.02
35888;BME280;21990;42.540;23.496;2023-05-09T09:52:53;93847.78;;;12.55;86.45
35888;BME280;21990;42.540;23.496;2023-05-09T09:55:20;93855.81;;;12.51;87.30
35888;BME280;21990;42.540;23.496;2023-05-09T09:57:46;93857.00;;;12.42;86.73
35888;BME280;21990;42.540;23.496;2023-05-09T10:00:13;93848.88;;;12.52;87.76
35888;BME280;21990;42.540;23.496;2023-05-09T10:02:52;93850.00;;;12.62;86.45
35888;BME280;21990;42.540;23.496;2023-05-09T10:05:21;93856.97;;;12.74;85.75
35888;BME280;21990;42.540;23.496;2023-05-09T10:07:53;93852.41;;;12.84;84.34
35888;BME280;21990;42.540;23.496;2023-05-09T10:10:19;93849.28;;;12.88;84.12
35888;BME280;21990;42.540;23.496;2023-05-09T10:12:44;93846.75;;;12.84;84.46
35888;BME280;21990;42.540;23.496;2023-05-09T10:15:10;93843.09;;;12.89;84.06
35888;BME280;21990;42.540;23.496;2023-05-09T10:17:36;93850.03;;;12.88;85.33
35888;BME280;21990;42.540;23.496;2023-05-09T10:20:03;93841.44;;;12.80;85.49
35888;BME280;21990;42.540;23.496;2023-05-09T10:22:29;93848.50;;;12.74;85.04
35888;BME280;21990;42.540;23.496;2023-05-09T10:25:03;93844.78;;;12.66;84.90
35888;BME280;21990;42.540;23.496;2023-05-09T10:27:30;93837.59;;;12.65;84.56
35888;BME280;21990;42.540;23.496;2023-05-09T10:32:47;93841.88;;;12.71;84.09
35888;BME280;21990;42.540;23.496;2023-05-09T10:35:11;93846.59;;;12.50;83.56
35888;BME280;21990;42.540;23.496;2023-05-09T10:37:38;93844.75;;;12.53;85.02
35888;BME280;21990;42.540;23.496;2023-05-09T10:40:03;93851.28;;;12.61;85.65
35888;BME280;21990;42.540;23.496;2023-05-09T10:42:29;93843.16;;;12.70;84.97
35888;BME280;21990;42.540;23.496;2023-05-09T10:44:55;93844.91;;;12.73;84.13
35888;BME280;21990;42.540;23.496;2023-05-09T10:47:20;93840.66;;;12.67;83.84
35888;BME280;21990;42.540;23.496;2023-05-09T10:49:46;93845.34;;;12.64;83.60
35888;BME280;21990;42.540;23.496;2023-05-09T10:52:13;93847.16;;;12.62;84.25
35888;BME280;21990;42.540;23.496;2023-05-09T10:54:38;93844.78;;;12.66;85.05
35888;BME280;21990;42.540;23.496;2023-05-09T10:57:04;93858.16;;;12.65;83.94
35888;BME280;21990;42.540;23.496;2023-05-09T10:59:34;93858.38;;;12.67;84.06
35888;BME280;21990;42.540;23.496;2023-05-09T11:02:00;93862.31;;;12.64;84.20
35888;BME280;21990;42.540;23.496;2023-05-09T11:04:27;93848.78;;;12.57;83.54
35888;BME280;21990;42.540;23.496;2023-05-09T11:06:53;93839.84;;;12.53;83.74
35888;BME280;21990;42.540;23.496;2023-05-09T11:14:31;93847.47;;;12.58;84.42
35888;BME280;21990;42.540;23.496;2023-05-09T11:16:57;93859.31;;;12.57;84.03
35888;BME280;21990;42.540;23.496;2023-05-09T11:19:33;93853.63;;;12.44;85.02
35888;BME280;21990;42.540;23.496;2023-05-09T11:22:00;93850.75;;;12.30;85.36
35888;BME280;21990;42.540;23.496;2023-05-09T11:24:27;93850.28;;;12.26;86.02
35888;BME280;21990;42.540;23.496;2023-05-09T11:26:55;93855.44;;;12.28;85.71
35888;BME280;21990;42.540;23.496;2023-05-09T11:29:25;93856.09;;;12.34;86.00
35888;BME280;21990;42.540;23.496;2023-05-09T11:32:03;93853.84;;;12.14;87.02
35888;BME280;21990;42.540;23.496;2023-05-09T11:34:29;93855.16;;;12.13;87.08
35888;BME280;21990;42.540;23.496;2023-05-09T11:37:05;93858.13;;;12.20;87.92
35888;BME280;21990;42.540;23.496;2023-05-09T11:39:31;93864.84;;;12.17;86.91
35888;BME280;21990;42.540;23.496;2023-05-09T11:41:56;93864.84;;;12.17;88.19
35888;BME280;21990;42.540;23.496;2023-05-09T11:44:21;93861.00;;;12.15;88.42
35888;BME280;21990;42.540;23.496;2023-05-09T11:46:48;93861.88;;;12.10;87.85
35888;BME280;21990;42.540;23.496;2023-05-09T11:49:13;93855.84;;;12.00;88.15
35888;BME280;21990;42.540;23.496;2023-05-09T11:51:39;93859.94;;;11.99;88.80
35888;BME280;21990;42.540;23.496;2023-05-09T11:54:05;93860.25;;;11.96;88.95
35888;BME280;21990;42.540;23.496;2023-05-09T11:56:31;93862.03;;;11.80;90.12
35888;BME280;21990;42.540;23.496;2023-05-09T11:58:58;93856.31;;;11.85;91.09
35888;BME280;21990;42.540;23.496;2023-05-09T12:01:23;93870.56;;;11.74;91.29
35888;BME280;21990;42.540;23.496;2023-05-09T12:03:49;93870.44;;;11.61;91.61
35888;BME280;21990;42.540;23.496;2023-05-09T12:06:18;93868.28;;;11.49;92.28
35888;BME280;21990;42.540;23.496;2023-05-09T12:08:44;93872.75;;;11.63;92.60
35888;BME280;21990;42.540;23.496;2023-05-09T12:11:10;93865.09;;;11.58;91.77
35888;BME280;21990;42.540;23.496;2023-05-09T12:13:42;93868.00;;;11.52;92.33
35888;BME280;21990;42.540;23.496;2023-05-09T12:16:08;93860.59;;;11.49;92.61
35888;BME280;21990;42.540;23.496;2023-05-09T12:18:33;93863.88;;;11.53;92.66
35888;BME280;21990;42.540;23.496;2023-05-09T12:20:59;93869.47;;;11.59;92.37
35888;BME280;21990;42.540;23.496;2023-05-09T12:23:24;93854.75;;;11.47;91.69
35888;BME280;21990;42.540;23.496;2023-05-09T12:25:53;93859.78;;;11.54;91.71
35888;BME280;21990;42.540;23.496;2023-05-09T12:28:22;93854.13;;;11.54;91.08
35888;BME280;21990;42.540;23.496;2023-05-09T12:30:48;93853.88;;;11.52;91.23
35888;BME280;21990;42.540;23.496;2023-05-09T12:33:13;93851.50;;;11.37;91.21
35888;BME280;21990;42.540;23.496;2023-05-09T12:35:39;93852.22;;;11.43;91.83
35888;BME280;21990;42.540;23.496;2023-05-09T12:38:12;93851.75;;;11.39;91.91
35888;BME280;21990;42.540;23.496;2023-05-09T12:40:38;93850.97;;;11.39;91.48
35888;BME280;21990;42.540;23.496;2023-05-09T12:43:04;93848.63;;;11.43;91.77
35888;BME280;21990;42.540;23.496;2023-05-09T12:45:32;93851.66;;;11.45;91.54
35888;BME280;21990;42.540;23.496;2023-05-09T12:47:58;93854.50;;;11.45;91.14
35888;BME280;21990;42.540;23.496;2023-05-09T12:50:31;93849.91;;;11.42;91.04
35888;BME280;21990;42.540;23.496;2023-05-09T12:52:59;93854.88;;;11.36;91.17
35888;BME280;21990;42.540;23.496;2023-05-09T12:55:25;93845.53;;;11.22;90.93
35888;BME280;21990;42.540;23.496;2023-05-09T12:57:58;93841.94;;;11.22;91.23
35888;BME280;21990;42.540;23.496;2023-05-09T13:00:24;93848.38;;;11.41;92.74
35888;BME280;21990;42.540;23.496;2023-05-09T13:02:50;93844.22;;;11.48;90.80
35888;BME280;21990;42.540;23.496;2023-05-09T13:05:17;93844.72;;;11.46;90.43